createdAt,value
2024-02-21T00:03:12.129Z,99005.58
2024-02-21T00:08:17.042Z,99007.11
2024-02-21T00:13:21.699Z,98999.61
2024-02-21T00:18:29.898Z,99001.93
2024-02-21T00:23:35.295Z,99002.25
2024-02-21T00:28:40.067Z,98997.24
2024-02-21T00:33:44.744Z,98991.36
2024-02-21T00:38:49.516Z,98982.05
2024-02-21T00:43:54.555Z,98981.27
2024-02-21T00:48:59.310Z,98977.25
2024-02-21T00:54:04.320Z,98971.77
2024-02-21T00:59:09.154Z,98970.33
2024-02-21T01:04:14.032Z,98974.40
2024-02-21T01:09:18.588Z,98970.17
2024-02-21T01:14:23.000Z,98967.90
2024-02-21T01:19:27.929Z,98959.76
2024-02-21T01:24:32.729Z,98959.67
2024-02-21T01:29:37.261Z,98958.44
2024-02-21T01:34:41.944Z,98949.27
2024-02-21T01:39:46.347Z,98946.20
2024-02-21T01:44:51.094Z,98941.49
2024-02-21T01:49:55.761Z,98930.99
2024-02-21T01:55:00.239Z,98927.91
2024-02-21T02:00:05.151Z,98932.86
2024-02-21T02:05:10.933Z,98932.61
2024-02-21T02:10:15.930Z,98923.38
2024-02-21T02:15:20.852Z,98921.87
2024-02-21T02:20:25.367Z,98917.73
2024-02-21T02:25:30.080Z,98917.02
2024-02-21T02:30:35.362Z,98916.52
2024-02-21T02:35:40.152Z,98899.48
2024-02-21T02:40:44.902Z,98890.86
2024-02-21T02:45:52.709Z,98888.73
2024-02-21T02:50:57.375Z,98897.64
2024-02-21T02:56:02.403Z,98895.68
2024-02-21T03:01:08.376Z,98892.87
2024-02-21T03:06:13.428Z,98891.12
2024-02-21T03:11:18.428Z,98885.14
2024-02-21T03:16:23.351Z,98891.80
2024-02-21T03:21:27.511Z,98892.40
2024-02-21T03:26:31.994Z,98887.86
2024-02-21T03:31:36.868Z,98888.17
2024-02-21T03:36:44.758Z,98892.55
2024-02-21T03:41:49.590Z,98894.26
2024-02-21T03:46:54.377Z,98896.75
2024-02-21T03:52:01.439Z,98895.33
2024-02-21T03:57:06.448Z,98888.91
2024-02-21T04:02:10.752Z,98889.60
2024-02-21T04:07:15.547Z,98887.19
2024-02-21T04:12:20.214Z,98885.05
2024-02-21T04:17:24.963Z,98877.60
2024-02-21T04:22:29.750Z,98878.08
2024-02-21T04:27:34.298Z,98873.61
2024-02-21T04:32:39.127Z,98873.52
2024-02-21T04:37:43.775Z,98871.95
2024-02-21T04:42:48.266Z,98871.48
2024-02-21T04:47:53.101Z,98866.77
2024-02-21T04:52:57.654Z,98870.13
2024-02-21T04:58:03.129Z,98860.59
2024-02-21T05:03:07.530Z,98850.11
2024-02-21T05:08:12.260Z,98846.09
2024-02-21T05:13:16.962Z,98837.89
2024-02-21T05:18:21.484Z,98836.23
2024-02-21T05:23:26.247Z,98834.73
2024-02-21T05:28:31.256Z,98829.42
2024-02-21T05:33:36.304Z,98833.08
2024-02-21T05:38:40.551Z,98826.35
2024-02-21T05:43:45.273Z,98829.09
2024-02-21T05:48:50.092Z,98830.50
2024-02-21T05:53:54.532Z,98826.97
2024-02-21T05:58:59.291Z,98826.95
2024-02-21T06:04:07.537Z,98826.33
2024-02-21T06:09:12.349Z,98821.87
2024-02-21T06:14:17.041Z,98823.12
2024-02-21T06:19:22.109Z,98821.70
2024-02-21T06:24:26.824Z,98823.51
2024-02-21T06:29:31.459Z,98821.77
2024-02-21T06:34:36.120Z,98827.33
2024-02-21T06:39:41.729Z,98825.30
2024-02-21T06:44:46.661Z,98820.98
2024-02-21T06:49:52.120Z,98819.98
2024-02-21T06:54:56.701Z,98823.40
2024-02-21T07:00:01.456Z,98825.91
2024-02-21T07:05:06.892Z,98824.27
2024-02-21T07:10:12.504Z,98819.89
2024-02-21T07:15:17.292Z,98819.56
2024-02-21T07:20:22.380Z,98819.80
2024-02-21T07:25:27.386Z,98819.78
2024-02-21T07:30:31.958Z,98816.27
2024-02-21T07:35:38.480Z,98815.95
2024-02-21T07:40:43.853Z,98813.84
2024-02-21T07:45:48.248Z,98809.92
2024-02-21T07:50:52.653Z,98808.45
2024-02-21T07:55:57.122Z,98800.23
2024-02-21T08:01:01.799Z,98792.73
2024-02-21T08:06:06.776Z,98789.39
2024-02-21T08:11:11.359Z,98786.89
2024-02-21T08:16:19.018Z,98778.17
2024-02-21T08:21:23.781Z,98772.10
2024-02-21T08:26:31.062Z,98762.71
2024-02-21T08:31:35.565Z,98757.64
2024-02-21T08:36:40.575Z,98756.47
2024-02-21T08:41:52.556Z,98754.33
2024-02-21T08:47:04.694Z,98755.91
2024-02-21T08:52:09.334Z,98753.48
2024-02-21T08:57:14.844Z,98739.31
2024-02-21T09:02:19.552Z,98734.91
2024-02-21T09:07:24.263Z,98726.95
2024-02-21T09:12:28.979Z,98732.63
2024-02-21T09:17:33.691Z,98727.14
2024-02-21T09:22:40.538Z,98730.58
2024-02-21T09:27:45.776Z,98729.45
2024-02-21T09:32:50.758Z,98727.44
2024-02-21T09:37:55.698Z,98726.44
2024-02-21T09:43:04.802Z,98729.33
2024-02-21T09:48:17.891Z,98731.20
2024-02-21T09:53:22.602Z,98737.17
2024-02-21T09:58:28.264Z,98732.08
2024-02-21T10:03:34.113Z,98733.66
2024-02-21T10:08:38.821Z,98728.94
2024-02-21T10:13:43.509Z,98725.02
2024-02-21T10:18:47.911Z,98725.46
2024-02-21T10:23:53.491Z,98723.52
2024-02-21T10:28:58.309Z,98717.71
2024-02-21T10:34:04.689Z,98713.34
2024-02-21T10:39:10.164Z,98707.40
2024-02-21T10:44:15.142Z,98706.00
2024-02-21T10:49:24.412Z,98703.03
2024-02-21T10:54:46.292Z,98691.88
2024-02-21T10:59:51.579Z,98685.08
2024-02-21T11:04:56.488Z,98683.09
2024-02-21T11:10:01.391Z,98679.78
2024-02-21T11:15:09.280Z,98674.08
2024-02-21T11:20:14.338Z,98668.13
2024-02-21T11:25:24.841Z,98652.00
2024-02-21T11:30:29.946Z,98646.60
2024-02-21T11:35:38.109Z,98642.22
2024-02-21T11:40:44.010Z,98638.99
2024-02-21T11:45:48.781Z,98635.95
2024-02-21T11:50:56.600Z,98630.15
2024-02-21T11:56:00.989Z,98624.46
2024-02-21T12:01:08.138Z,98619.60
2024-02-21T12:06:13.236Z,98623.50
2024-02-21T12:11:24.415Z,98622.55
2024-02-21T12:16:30.599Z,98624.11
2024-02-21T12:21:37.808Z,98619.99
2024-02-21T12:26:42.253Z,98617.64
2024-02-21T12:31:48.079Z,98609.48
2024-02-21T12:36:53.081Z,98606.70
2024-02-21T12:41:59.077Z,98601.84
2024-02-21T12:47:03.895Z,98601.54
2024-02-21T12:52:08.964Z,98596.28
2024-02-21T12:57:13.221Z,98594.95
2024-02-21T13:02:17.871Z,98586.27
2024-02-21T13:07:22.565Z,98581.88
2024-02-21T13:12:28.617Z,98574.45
2024-02-21T13:17:33.322Z,98567.02
2024-02-21T13:22:37.991Z,98563.73
2024-02-21T13:27:42.728Z,98561.95
2024-02-21T13:32:47.700Z,98556.31
2024-02-21T13:37:52.616Z,98552.95
2024-02-21T13:42:57.049Z,98541.68
2024-02-21T13:48:01.521Z,98540.20
2024-02-21T13:53:06.489Z,98533.87
2024-02-21T13:58:11.113Z,98532.36
2024-02-21T14:03:16.013Z,98529.46
2024-02-21T14:08:21.422Z,98513.03
2024-02-21T14:13:25.973Z,98508.19
2024-02-21T14:18:30.949Z,98501.56
2024-02-21T14:23:35.528Z,98492.15
2024-02-21T14:28:40.446Z,98487.55
2024-02-21T14:33:47.338Z,98484.41
2024-02-21T14:38:52.593Z,98477.20
2024-02-21T14:44:03.547Z,98456.08
2024-02-21T14:49:09.529Z,98448.35
2024-02-21T14:54:14.176Z,98449.84
2024-02-21T14:59:25.976Z,98454.52
2024-02-21T15:04:47.141Z,98454.36
2024-02-21T15:09:54.543Z,98456.02
2024-02-21T15:15:05.150Z,98449.85
2024-02-21T15:20:10.699Z,98446.69
2024-02-21T15:25:16.741Z,98448.49
2024-02-21T15:30:21.569Z,98442.83
2024-02-21T15:35:25.947Z,98442.02
2024-02-21T15:40:30.874Z,98435.66
2024-02-21T15:45:35.619Z,98424.17
2024-02-21T15:50:40.072Z,98419.22
2024-02-21T15:55:46.961Z,98418.38
2024-02-21T16:01:01.659Z,98410.02
2024-02-21T16:06:10.839Z,98405.15
2024-02-21T16:11:16.429Z,98407.08
2024-02-21T16:16:21.368Z,98404.02
2024-02-21T16:21:26.223Z,98400.91
2024-02-21T16:26:30.969Z,98400.27
2024-02-21T16:31:36.446Z,98400.99
2024-02-21T16:36:41.091Z,98401.14
2024-02-21T16:41:45.408Z,98395.77
2024-02-21T16:46:49.902Z,98394.79
2024-02-21T16:51:54.568Z,98394.23
2024-02-21T16:56:59.112Z,98390.54
2024-02-21T17:02:04.739Z,98395.08
2024-02-21T17:07:09.577Z,98396.57
2024-02-21T17:12:14.348Z,98393.34
2024-02-21T17:17:18.885Z,98383.63
2024-02-21T17:22:23.847Z,98386.02
2024-02-21T17:27:28.798Z,98387.11
2024-02-21T17:32:35.089Z,98377.39
2024-02-21T17:37:39.816Z,98368.31
2024-02-21T17:42:44.457Z,98371.44
2024-02-21T17:47:48.841Z,98366.04
2024-02-21T17:52:53.457Z,98362.11
2024-02-21T17:57:58.295Z,98358.59
2024-02-21T18:03:04.027Z,98356.32
2024-02-21T18:08:10.046Z,98354.36
2024-02-21T18:13:14.556Z,98344.42
2024-02-21T18:18:19.055Z,98342.94
2024-02-21T18:23:23.746Z,98337.69
2024-02-21T18:28:29.037Z,98332.61
2024-02-21T18:33:33.690Z,98321.04
2024-02-21T18:38:38.284Z,98315.39
2024-02-21T18:43:43.023Z,98307.88
2024-02-21T18:48:47.710Z,98298.88
2024-02-21T18:53:55.639Z,98292.08
2024-02-21T18:59:01.148Z,98286.38
2024-02-21T19:04:06.020Z,98281.83
2024-02-21T19:09:11.187Z,98279.25
2024-02-21T19:14:15.543Z,98272.13
2024-02-21T19:19:20.175Z,98269.32
2024-02-21T19:24:25.487Z,98270.48
2024-02-21T19:29:30.109Z,98275.41
2024-02-21T19:34:35.275Z,98271.11
2024-02-21T19:39:39.581Z,98261.73
2024-02-21T19:44:44.451Z,98260.86
2024-02-21T19:49:49.353Z,98258.20
2024-02-21T19:54:55.114Z,98252.58
2024-02-21T20:00:00.333Z,98248.11
2024-02-21T20:05:06.168Z,98236.70
2024-02-21T20:10:12.408Z,98235.13
2024-02-21T20:15:16.890Z,98228.01
2024-02-21T20:20:23.015Z,98217.70
2024-02-21T20:25:27.493Z,98217.85
2024-02-21T20:30:32.157Z,98209.88
2024-02-21T20:35:36.846Z,98201.98
2024-02-21T20:40:41.686Z,98198.69
2024-02-21T20:45:46.579Z,98200.25
2024-02-21T20:50:51.353Z,98203.70
2024-02-21T20:55:55.988Z,98202.29
2024-02-21T21:01:01.274Z,98200.88
2024-02-21T21:06:06.357Z,98197.42
2024-02-21T21:11:12.044Z,98189.92
2024-02-21T21:16:17.953Z,98178.44
2024-02-21T21:21:22.542Z,98168.27
2024-02-21T21:26:26.785Z,98161.47
2024-02-21T21:31:31.131Z,98152.56
2024-02-21T21:36:35.727Z,98140.98
2024-02-21T21:41:40.035Z,98133.02
2024-02-21T21:46:46.361Z,98123.02
2024-02-21T21:51:50.845Z,98108.55
2024-02-21T21:56:55.435Z,98107.23
2024-02-21T22:02:00.472Z,98104.65
2024-02-21T22:07:06.001Z,98099.17
2024-02-21T22:12:11.002Z,98087.59
2024-02-21T22:17:18.488Z,98078.45
2024-02-21T22:22:24.553Z,98070.63
2024-02-21T22:27:29.133Z,98062.04
2024-02-21T22:32:33.573Z,98057.75
2024-02-21T22:37:38.297Z,98057.98
2024-02-21T22:42:43.551Z,98052.50
2024-02-21T22:47:48.620Z,98043.36
2024-02-21T22:52:53.270Z,98040.06
2024-02-21T22:57:57.594Z,98027.41
2024-02-21T23:03:02.151Z,98023.27
2024-02-21T23:08:11.197Z,98009.84
2024-02-21T23:13:17.749Z,98005.15
2024-02-21T23:18:22.196Z,97999.45
2024-02-21T23:23:27.946Z,97993.66
2024-02-21T23:28:32.931Z,97985.06
2024-02-21T23:33:37.419Z,97977.95
2024-02-21T23:38:42.122Z,97971.09
2024-02-21T23:43:46.789Z,97974.91
2024-02-21T23:48:51.909Z,97972.09
2024-02-21T23:53:56.289Z,97972.10
2024-02-21T23:59:00.866Z,97953.73
